Nasons, Virginia
Current Conditions -  °F | °C
As of 4:15 AM on Thursday 27 Nov 2014 (Local Time) from KOMH Reporting Station
Haze Haze  
Wind Chill: 36°   Ceiling: 100
Heat Index: 36°   Visibility: 1mi
Dew Point: 34°   Wind: 0mph
Humidity: 93%   Direction: NA
Pressure: 30.03"   Gusts: NA
Location:  38.216°N, 78.057°W
Report Text: KOMH 270915Z AUTO 00000KT 1SM BR BKN001 OVC034 02/01 A3003 RMK AO2
Loading
Personal Weather Stations






























Interactive Weather Map New forecast layout! Learn more

10-Day Weather Forecast

Advertisements
Track Severe Weather on mobile